sensor_id;sensor_type;location;lat;lon;timestamp;P1;durP1;ratioP1;P2;durP2;ratioP2
14903;SDS011;7543;53.148;8.234;2023-08-06T00:00:45;3.87;;;2.80;;
14903;SDS011;7543;53.148;8.234;2023-08-06T00:03:14;3.67;;;2.27;;
14903;SDS011;7543;53.148;8.234;2023-08-06T00:05:42;2.80;;;2.30;;
14903;SDS011;7543;53.148;8.234;2023-08-06T00:08:12;2.27;;;1.97;;
14903;SDS011;7543;53.148;8.234;2023-08-06T00:10:40;2.83;;;2.10;;
14903;SDS011;7543;53.148;8.234;2023-08-06T00:13:09;4.97;;;2.37;;
14903;SDS011;7543;53.148;8.234;2023-08-06T00:15:37;3.00;;;2.23;;
14903;SDS011;7543;53.148;8.234;2023-08-06T00:18:05;4.47;;;2.30;;
14903;SDS011;7543;53.148;8.234;2023-08-06T00:20:33;3.53;;;2.37;;
14903;SDS011;7543;53.148;8.234;2023-08-06T00:23:02;4.33;;;2.23;;
14903;SDS011;7543;53.148;8.234;2023-08-06T00:25:31;3.23;;;2.30;;
14903;SDS011;7543;53.148;8.234;2023-08-06T00:28:00;4.17;;;2.10;;
14903;SDS011;7543;53.148;8.234;2023-08-06T00:30:28;1.97;;;1.70;;
14903;SDS011;7543;53.148;8.234;2023-08-06T00:32:56;3.30;;;2.50;;
14903;SDS011;7543;53.148;8.234;2023-08-06T00:35:25;2.73;;;1.87;;
14903;SDS011;7543;53.148;8.234;2023-08-06T00:37:53;3.17;;;2.20;;
14903;SDS011;7543;53.148;8.234;2023-08-06T00:40:21;6.00;;;2.13;;
14903;SDS011;7543;53.148;8.234;2023-08-06T00:42:52;2.37;;;1.90;;
14903;SDS011;7543;53.148;8.234;2023-08-06T00:45:20;2.83;;;2.03;;
14903;SDS011;7543;53.148;8.234;2023-08-06T00:47:49;5.53;;;2.10;;
14903;SDS011;7543;53.148;8.234;2023-08-06T00:50:18;2.57;;;2.00;;
14903;SDS011;7543;53.148;8.234;2023-08-06T00:52:48;3.73;;;1.90;;
14903;SDS011;7543;53.148;8.234;2023-08-06T00:55:16;3.40;;;2.33;;
14903;SDS011;7543;53.148;8.234;2023-08-06T00:57:45;2.53;;;1.97;;
14903;SDS011;7543;53.148;8.234;2023-08-06T01:00:14;3.57;;;2.00;;
14903;SDS011;7543;53.148;8.234;2023-08-06T01:02:43;3.13;;;2.00;;
14903;SDS011;7543;53.148;8.234;2023-08-06T01:05:11;3.00;;;2.17;;
14903;SDS011;7543;53.148;8.234;2023-08-06T01:07:41;2.47;;;2.03;;
14903;SDS011;7543;53.148;8.234;2023-08-06T01:10:19;2.77;;;2.00;;
14903;SDS011;7543;53.148;8.234;2023-08-06T01:12:52;3.50;;;2.10;;
14903;SDS011;7543;53.148;8.234;2023-08-06T01:15:29;2.67;;;2.10;;
14903;SDS011;7543;53.148;8.234;2023-08-06T01:17:59;3.97;;;1.90;;
14903;SDS011;7543;53.148;8.234;2023-08-06T01:20:29;2.50;;;2.07;;
14903;SDS011;7543;53.148;8.234;2023-08-06T01:22:58;4.10;;;2.37;;
14903;SDS011;7543;53.148;8.234;2023-08-06T01:25:32;3.33;;;2.27;;
14903;SDS011;7543;53.148;8.234;2023-08-06T01:28:04;3.90;;;2.53;;
14903;SDS011;7543;53.148;8.234;2023-08-06T01:30:37;2.87;;;2.00;;
14903;SDS011;7543;53.148;8.234;2023-08-06T01:33:08;2.70;;;2.30;;
14903;SDS011;7543;53.148;8.234;2023-08-06T01:35:39;3.40;;;2.50;;
14903;SDS011;7543;53.148;8.234;2023-08-06T01:38:08;3.23;;;2.40;;
14903;SDS011;7543;53.148;8.234;2023-08-06T01:40:37;4.03;;;2.80;;
14903;SDS011;7543;53.148;8.234;2023-08-06T01:43:05;3.83;;;2.87;;
14903;SDS011;7543;53.148;8.234;2023-08-06T01:45:33;3.83;;;2.50;;
14903;SDS011;7543;53.148;8.234;2023-08-06T01:48:02;3.17;;;2.53;;
14903;SDS011;7543;53.148;8.234;2023-08-06T01:50:30;4.03;;;2.60;;
14903;SDS011;7543;53.148;8.234;2023-08-06T01:53:00;2.70;;;2.50;;
14903;SDS011;7543;53.148;8.234;2023-08-06T01:55:29;3.80;;;2.93;;
14903;SDS011;7543;53.148;8.234;2023-08-06T01:57:59;4.77;;;2.57;;
14903;SDS011;7543;53.148;8.234;2023-08-06T02:00:27;4.53;;;2.83;;
14903;SDS011;7543;53.148;8.234;2023-08-06T02:02:55;4.17;;;2.60;;
14903;SDS011;7543;53.148;8.234;2023-08-06T02:05:24;4.27;;;2.57;;
14903;SDS011;7543;53.148;8.234;2023-08-06T02:07:52;7.97;;;2.70;;
14903;SDS011;7543;53.148;8.234;2023-08-06T02:10:22;3.50;;;2.70;;
14903;SDS011;7543;53.148;8.234;2023-08-06T02:12:50;4.73;;;2.83;;
14903;SDS011;7543;53.148;8.234;2023-08-06T02:15:18;3.13;;;2.40;;
14903;SDS011;7543;53.148;8.234;2023-08-06T02:17:47;3.73;;;2.67;;
14903;SDS011;7543;53.148;8.234;2023-08-06T02:20:15;5.10;;;3.17;;
14903;SDS011;7543;53.148;8.234;2023-08-06T02:22:43;3.33;;;2.70;;
14903;SDS011;7543;53.148;8.234;2023-08-06T02:25:12;2.87;;;2.27;;
14903;SDS011;7543;53.148;8.234;2023-08-06T02:27:41;4.30;;;2.30;;
14903;SDS011;7543;53.148;8.234;2023-08-06T02:30:10;3.10;;;2.43;;
14903;SDS011;7543;53.148;8.234;2023-08-06T02:32:39;2.80;;;2.13;;
14903;SDS011;7543;53.148;8.234;2023-08-06T02:35:08;5.13;;;2.40;;
14903;SDS011;7543;53.148;8.234;2023-08-06T02:37:36;4.13;;;2.70;;
14903;SDS011;7543;53.148;8.234;2023-08-06T02:40:05;5.13;;;2.40;;
14903;SDS011;7543;53.148;8.234;2023-08-06T02:42:34;4.03;;;2.73;;
14903;SDS011;7543;53.148;8.234;2023-08-06T02:45:04;4.70;;;2.50;;
14903;SDS011;7543;53.148;8.234;2023-08-06T02:47:34;5.27;;;3.03;;
14903;SDS011;7543;53.148;8.234;2023-08-06T02:50:02;5.33;;;3.40;;
14903;SDS011;7543;53.148;8.234;2023-08-06T02:52:31;4.57;;;3.33;;
14903;SDS011;7543;53.148;8.234;2023-08-06T02:54:59;5.83;;;3.90;;
14903;SDS011;7543;53.148;8.234;2023-08-06T02:57:30;8.23;;;3.17;;
14903;SDS011;7543;53.148;8.234;2023-08-06T02:59:58;4.37;;;2.90;;
14903;SDS011;7543;53.148;8.234;2023-08-06T03:02:28;3.70;;;2.83;;
14903;SDS011;7543;53.148;8.234;2023-08-06T03:05:23;5.23;;;3.23;;
14903;SDS011;7543;53.148;8.234;2023-08-06T03:07:51;5.17;;;3.40;;
14903;SDS011;7543;53.148;8.234;2023-08-06T03:10:24;4.83;;;2.63;;
14903;SDS011;7543;53.148;8.234;2023-08-06T03:12:55;3.70;;;2.33;;
14903;SDS011;7543;53.148;8.234;2023-08-06T03:15:24;3.63;;;2.60;;
14903;SDS011;7543;53.148;8.234;2023-08-06T03:17:56;6.77;;;2.90;;
14903;SDS011;7543;53.148;8.234;2023-08-06T03:20:25;4.43;;;2.57;;
14903;SDS011;7543;53.148;8.234;2023-08-06T03:22:54;4.40;;;2.80;;
14903;SDS011;7543;53.148;8.234;2023-08-06T03:25:22;2.57;;;1.90;;
14903;SDS011;7543;53.148;8.234;2023-08-06T03:27:51;2.70;;;2.00;;
14903;SDS011;7543;53.148;8.234;2023-08-06T03:30:20;3.37;;;2.37;;
14903;SDS011;7543;53.148;8.234;2023-08-06T03:32:51;2.10;;;1.80;;
14903;SDS011;7543;53.148;8.234;2023-08-06T03:35:23;2.50;;;1.90;;
14903;SDS011;7543;53.148;8.234;2023-08-06T03:37:51;2.30;;;1.80;;
14903;SDS011;7543;53.148;8.234;2023-08-06T03:40:20;2.30;;;1.93;;
14903;SDS011;7543;53.148;8.234;2023-08-06T03:42:48;2.27;;;1.80;;
14903;SDS011;7543;53.148;8.234;2023-08-06T03:45:16;2.47;;;1.70;;
14903;SDS011;7543;53.148;8.234;2023-08-06T03:47:45;3.43;;;2.10;;
14903;SDS011;7543;53.148;8.234;2023-08-06T03:50:14;1.97;;;1.73;;
14903;SDS011;7543;53.148;8.234;2023-08-06T03:52:44;2.37;;;1.97;;
14903;SDS011;7543;53.148;8.234;2023-08-06T03:55:12;2.10;;;1.70;;
14903;SDS011;7543;53.148;8.234;2023-08-06T03:57:41;2.50;;;1.90;;
14903;SDS011;7543;53.148;8.234;2023-08-06T04:00:09;2.53;;;1.90;;
14903;SDS011;7543;53.148;8.234;2023-08-06T04:02:41;3.17;;;2.10;;
14903;SDS011;7543;53.148;8.234;2023-08-06T04:05:12;2.47;;;1.90;;
14903;SDS011;7543;53.148;8.234;2023-08-06T04:07:41;3.03;;;1.80;;
14903;SDS011;7543;53.148;8.234;2023-08-06T04:10:10;2.60;;;1.90;;
14903;SDS011;7543;53.148;8.234;2023-08-06T04:12:39;2.70;;;2.00;;
14903;SDS011;7543;53.148;8.234;2023-08-06T04:15:07;3.03;;;2.00;;
14903;SDS011;7543;53.148;8.234;2023-08-06T04:17:36;3.67;;;2.17;;
14903;SDS011;7543;53.148;8.234;2023-08-06T04:20:05;2.97;;;2.33;;
14903;SDS011;7543;53.148;8.234;2023-08-06T04:22:35;2.23;;;1.97;;
14903;SDS011;7543;53.148;8.234;2023-08-06T04:25:05;4.50;;;2.10;;
14903;SDS011;7543;53.148;8.234;2023-08-06T04:27:36;2.87;;;2.07;;
14903;SDS011;7543;53.148;8.234;2023-08-06T04:30:09;2.97;;;2.27;;
14903;SDS011;7543;53.148;8.234;2023-08-06T04:32:39;4.00;;;2.23;;
14903;SDS011;7543;53.148;8.234;2023-08-06T04:35:07;2.67;;;2.03;;
14903;SDS011;7543;53.148;8.234;2023-08-06T04:37:38;2.97;;;2.20;;
14903;SDS011;7543;53.148;8.234;2023-08-06T04:40:06;3.80;;;2.20;;
14903;SDS011;7543;53.148;8.234;2023-08-06T04:42:37;3.00;;;2.27;;
14903;SDS011;7543;53.148;8.234;2023-08-06T04:45:06;2.80;;;2.07;;
14903;SDS011;7543;53.148;8.234;2023-08-06T04:47:35;2.83;;;2.47;;
14903;SDS011;7543;53.148;8.234;2023-08-06T04:50:03;3.63;;;2.33;;
14903;SDS011;7543;53.148;8.234;2023-08-06T04:52:32;3.03;;;2.07;;
14903;SDS011;7543;53.148;8.234;2023-08-06T04:55:00;4.20;;;2.30;;
14903;SDS011;7543;53.148;8.234;2023-08-06T04:57:28;3.07;;;2.40;;
14903;SDS011;7543;53.148;8.234;2023-08-06T04:59:58;4.40;;;2.30;;
14903;SDS011;7543;53.148;8.234;2023-08-06T05:02:26;2.93;;;2.07;;
14903;SDS011;7543;53.148;8.234;2023-08-06T05:04:55;2.20;;;1.90;;
14903;SDS011;7543;53.148;8.234;2023-08-06T05:07:23;3.20;;;2.03;;
14903;SDS011;7543;53.148;8.234;2023-08-06T05:09:51;7.93;;;2.20;;
14903;SDS011;7543;53.148;8.234;2023-08-06T05:12:20;3.53;;;1.90;;
14903;SDS011;7543;53.148;8.234;2023-08-06T05:14:48;6.47;;;2.40;;
14903;SDS011;7543;53.148;8.234;2023-08-06T05:17:18;3.67;;;2.30;;
14903;SDS011;7543;53.148;8.234;2023-08-06T05:19:46;4.67;;;2.67;;
14903;SDS011;7543;53.148;8.234;2023-08-06T05:22:15;2.83;;;2.17;;
14903;SDS011;7543;53.148;8.234;2023-08-06T05:24:43;3.80;;;2.70;;
14903;SDS011;7543;53.148;8.234;2023-08-06T05:27:11;3.50;;;2.63;;
14903;SDS011;7543;53.148;8.234;2023-08-06T05:29:40;5.20;;;3.10;;
14903;SDS011;7543;53.148;8.234;2023-08-06T05:32:08;6.07;;;3.30;;
14903;SDS011;7543;53.148;8.234;2023-08-06T05:34:38;5.00;;;3.40;;
14903;SDS011;7543;53.148;8.234;2023-08-06T05:37:08;5.10;;;3.67;;
14903;SDS011;7543;53.148;8.234;2023-08-06T05:39:36;8.00;;;4.40;;
14903;SDS011;7543;53.148;8.234;2023-08-06T05:42:05;5.50;;;3.93;;
14903;SDS011;7543;53.148;8.234;2023-08-06T05:44:33;6.67;;;4.80;;
14903;SDS011;7543;53.148;8.234;2023-08-06T05:47:02;6.17;;;4.40;;
14903;SDS011;7543;53.148;8.234;2023-08-06T05:49:30;5.17;;;4.13;;
14903;SDS011;7543;53.148;8.234;2023-08-06T05:52:00;8.00;;;4.70;;
14903;SDS011;7543;53.148;8.234;2023-08-06T05:54:29;9.70;;;4.53;;
14903;SDS011;7543;53.148;8.234;2023-08-06T05:56:57;7.47;;;4.97;;
14903;SDS011;7543;53.148;8.234;2023-08-06T05:59:26;6.10;;;4.70;;
14903;SDS011;7543;53.148;8.234;2023-08-06T06:01:54;7.73;;;4.63;;
14903;SDS011;7543;53.148;8.234;2023-08-06T06:04:22;6.43;;;4.57;;
14903;SDS011;7543;53.148;8.234;2023-08-06T06:06:51;8.03;;;4.37;;
14903;SDS011;7543;53.148;8.234;2023-08-06T06:09:20;7.67;;;4.83;;
14903;SDS011;7543;53.148;8.234;2023-08-06T06:11:49;6.17;;;4.73;;
14903;SDS011;7543;53.148;8.234;2023-08-06T06:14:17;5.77;;;4.47;;
14903;SDS011;7543;53.148;8.234;2023-08-06T06:16:49;7.17;;;4.63;;
14903;SDS011;7543;53.148;8.234;2023-08-06T06:19:17;6.87;;;4.90;;
14903;SDS011;7543;53.148;8.234;2023-08-06T06:21:45;6.50;;;4.87;;
14903;SDS011;7543;53.148;8.234;2023-08-06T06:24:13;6.73;;;4.77;;
14903;SDS011;7543;53.148;8.234;2023-08-06T06:26:43;6.10;;;4.53;;
14903;SDS011;7543;53.148;8.234;2023-08-06T06:29:12;6.77;;;4.50;;
14903;SDS011;7543;53.148;8.234;2023-08-06T06:31:40;6.67;;;4.33;;
14903;SDS011;7543;53.148;8.234;2023-08-06T06:34:08;5.40;;;4.20;;
14903;SDS011;7543;53.148;8.234;2023-08-06T06:36:37;7.63;;;4.70;;
14903;SDS011;7543;53.148;8.234;2023-08-06T06:39:05;5.60;;;4.17;;
14903;SDS011;7543;53.148;8.234;2023-08-06T06:41:34;5.20;;;4.30;;
14903;SDS011;7543;53.148;8.234;2023-08-06T06:44:13;5.70;;;4.17;;
14903;SDS011;7543;53.148;8.234;2023-08-06T06:46:41;5.33;;;3.90;;
14903;SDS011;7543;53.148;8.234;2023-08-06T06:49:09;7.53;;;4.87;;
14903;SDS011;7543;53.148;8.234;2023-08-06T06:51:38;5.67;;;4.30;;
14903;SDS011;7543;53.148;8.234;2023-08-06T06:54:06;6.17;;;4.00;;
14903;SDS011;7543;53.148;8.234;2023-08-06T06:56:34;6.70;;;4.23;;
14903;SDS011;7543;53.148;8.234;2023-08-06T06:59:03;8.27;;;4.87;;
14903;SDS011;7543;53.148;8.234;2023-08-06T07:01:32;6.10;;;4.30;;
14903;SDS011;7543;53.148;8.234;2023-08-06T07:04:01;5.77;;;4.57;;
14903;SDS011;7543;53.148;8.234;2023-08-06T07:06:31;8.60;;;5.20;;
14903;SDS011;7543;53.148;8.234;2023-08-06T07:08:59;6.47;;;5.17;;
14903;SDS011;7543;53.148;8.234;2023-08-06T07:11:28;6.97;;;4.87;;
14903;SDS011;7543;53.148;8.234;2023-08-06T07:13:56;6.97;;;4.67;;
14903;SDS011;7543;53.148;8.234;2023-08-06T07:16:25;6.67;;;4.57;;
14903;SDS011;7543;53.148;8.234;2023-08-06T07:18:55;9.37;;;4.53;;
14903;SDS011;7543;53.148;8.234;2023-08-06T07:21:24;7.40;;;4.73;;
14903;SDS011;7543;53.148;8.234;2023-08-06T07:23:52;7.83;;;5.93;;
14903;SDS011;7543;53.148;8.234;2023-08-06T07:26:21;7.90;;;5.93;;
14903;SDS011;7543;53.148;8.234;2023-08-06T07:28:49;9.40;;;6.30;;
14903;SDS011;7543;53.148;8.234;2023-08-06T07:31:17;8.80;;;6.10;;
14903;SDS011;7543;53.148;8.234;2023-08-06T07:33:46;7.30;;;5.37;;
14903;SDS011;7543;53.148;8.234;2023-08-06T07:36:15;6.47;;;5.03;;
14903;SDS011;7543;53.148;8.234;2023-08-06T07:38:44;6.47;;;4.70;;
14903;SDS011;7543;53.148;8.234;2023-08-06T07:41:12;8.37;;;5.13;;
14903;SDS011;7543;53.148;8.234;2023-08-06T07:43:40;8.27;;;5.23;;
14903;SDS011;7543;53.148;8.234;2023-08-06T07:46:09;6.30;;;4.70;;
14903;SDS011;7543;53.148;8.234;2023-08-06T07:48:42;6.77;;;4.57;;
14903;SDS011;7543;53.148;8.234;2023-08-06T07:51:10;7.53;;;4.80;;
14903;SDS011;7543;53.148;8.234;2023-08-06T07:53:40;5.57;;;4.10;;
14903;SDS011;7543;53.148;8.234;2023-08-06T07:56:08;7.37;;;4.23;;
14903;SDS011;7543;53.148;8.234;2023-08-06T07:58:37;6.23;;;4.27;;
14903;SDS011;7543;53.148;8.234;2023-08-06T08:01:05;6.27;;;4.67;;
14903;SDS011;7543;53.148;8.234;2023-08-06T08:03:37;8.63;;;4.67;;
14903;SDS011;7543;53.148;8.234;2023-08-06T08:06:05;6.77;;;4.53;;
14903;SDS011;7543;53.148;8.234;2023-08-06T08:08:36;7.47;;;4.67;;
14903;SDS011;7543;53.148;8.234;2023-08-06T08:11:07;8.00;;;4.80;;
14903;SDS011;7543;53.148;8.234;2023-08-06T08:13:35;5.00;;;4.50;;
14903;SDS011;7543;53.148;8.234;2023-08-06T08:16:03;5.57;;;4.47;;
14903;SDS011;7543;53.148;8.234;2023-08-06T08:18:32;6.87;;;4.80;;
14903;SDS011;7543;53.148;8.234;2023-08-06T08:21:00;5.87;;;4.80;;
14903;SDS011;7543;53.148;8.234;2023-08-06T08:23:28;6.47;;;4.57;;
14903;SDS011;7543;53.148;8.234;2023-08-06T08:25:58;5.73;;;4.73;;
14903;SDS011;7543;53.148;8.234;2023-08-06T08:28:30;6.50;;;5.17;;
14903;SDS011;7543;53.148;8.234;2023-08-06T08:30:58;6.60;;;5.23;;
14903;SDS011;7543;53.148;8.234;2023-08-06T08:33:26;7.23;;;5.80;;
14903;SDS011;7543;53.148;8.234;2023-08-06T08:35:55;10.43;;;6.57;;
14903;SDS011;7543;53.148;8.234;2023-08-06T08:38:23;8.43;;;6.20;;
14903;SDS011;7543;53.148;8.234;2023-08-06T08:40:51;9.33;;;5.67;;
14903;SDS011;7543;53.148;8.234;2023-08-06T08:43:20;9.23;;;6.53;;
14903;SDS011;7543;53.148;8.234;2023-08-06T08:45:51;8.70;;;6.43;;
14903;SDS011;7543;53.148;8.234;2023-08-06T08:48:21;8.40;;;6.70;;
14903;SDS011;7543;53.148;8.234;2023-08-06T08:50:50;6.87;;;5.73;;
14903;SDS011;7543;53.148;8.234;2023-08-06T08:53:18;7.63;;;6.33;;
14903;SDS011;7543;53.148;8.234;2023-08-06T08:55:49;9.53;;;6.27;;
14903;SDS011;7543;53.148;8.234;2023-08-06T08:58:17;8.17;;;6.20;;
14903;SDS011;7543;53.148;8.234;2023-08-06T09:00:46;8.93;;;6.20;;
14903;SDS011;7543;53.148;8.234;2023-08-06T09:03:16;7.00;;;5.40;;
14903;SDS011;7543;53.148;8.234;2023-08-06T09:05:44;6.67;;;5.63;;
14903;SDS011;7543;53.148;8.234;2023-08-06T09:08:15;7.23;;;6.10;;
14903;SDS011;7543;53.148;8.234;2023-08-06T09:10:46;8.40;;;6.35;;
14903;SDS011;7543;53.148;8.234;2023-08-06T09:13:16;8.07;;;5.73;;
14903;SDS011;7543;53.148;8.234;2023-08-06T09:15:44;6.57;;;5.53;;
14903;SDS011;7543;53.148;8.234;2023-08-06T09:18:12;6.47;;;5.37;;
14903;SDS011;7543;53.148;8.234;2023-08-06T09:20:42;8.00;;;5.57;;
14903;SDS011;7543;53.148;8.234;2023-08-06T09:23:10;7.03;;;5.23;;
14903;SDS011;7543;53.148;8.234;2023-08-06T09:25:39;5.53;;;4.83;;
14903;SDS011;7543;53.148;8.234;2023-08-06T09:28:08;6.55;;;4.80;;
14903;SDS011;7543;53.148;8.234;2023-08-06T09:30:36;4.75;;;4.00;;
14903;SDS011;7543;53.148;8.234;2023-08-06T09:33:07;4.05;;;3.65;;
14903;SDS011;7543;53.148;8.234;2023-08-06T09:35:37;4.07;;;3.67;;
14903;SDS011;7543;53.148;8.234;2023-08-06T09:38:07;5.78;;;3.60;;
14903;SDS011;7543;53.148;8.234;2023-08-06T09:40:37;5.82;;;2.75;;
14903;SDS011;7543;53.148;8.234;2023-08-06T09:43:06;5.10;;;4.05;;
14903;SDS011;7543;53.148;8.234;2023-08-06T09:45:35;4.88;;;3.40;;
14903;SDS011;7543;53.148;8.234;2023-08-06T09:48:04;3.60;;;3.15;;
14903;SDS011;7543;53.148;8.234;2023-08-06T09:50:33;3.37;;;3.07;;
14903;SDS011;7543;53.148;8.234;2023-08-06T09:53:03;3.55;;;3.25;;
14903;SDS011;7543;53.148;8.234;2023-08-06T09:55:34;3.60;;;3.30;;
14903;SDS011;7543;53.148;8.234;2023-08-06T09:58:02;3.53;;;3.10;;
14903;SDS011;7543;53.148;8.234;2023-08-06T10:00:32;5.18;;;3.33;;
14903;SDS011;7543;53.148;8.234;2023-08-06T10:03:01;3.60;;;3.30;;
14903;SDS011;7543;53.148;8.234;2023-08-06T10:05:30;4.30;;;3.90;;
14903;SDS011;7543;53.148;8.234;2023-08-06T10:07:59;4.90;;;4.25;;
14903;SDS011;7543;53.148;8.234;2023-08-06T10:10:29;4.77;;;3.93;;
14903;SDS011;7543;53.148;8.234;2023-08-06T10:12:59;4.85;;;4.35;;
14903;SDS011;7543;53.148;8.234;2023-08-06T10:15:28;5.65;;;4.50;;
14903;SDS011;7543;53.148;8.234;2023-08-06T10:17:59;5.25;;;4.43;;
14903;SDS011;7543;53.148;8.234;2023-08-06T10:20:32;5.60;;;4.80;;
14903;SDS011;7543;53.148;8.234;2023-08-06T10:23:02;6.20;;;4.78;;
14903;SDS011;7543;53.148;8.234;2023-08-06T10:25:31;5.10;;;4.60;;
14903;SDS011;7543;53.148;8.234;2023-08-06T10:28:08;4.00;;;3.28;;
14903;SDS011;7543;53.148;8.234;2023-08-06T10:30:44;3.45;;;3.15;;
14903;SDS011;7543;53.148;8.234;2023-08-06T10:33:13;4.70;;;3.60;;
14903;SDS011;7543;53.148;8.234;2023-08-06T10:35:43;4.00;;;3.40;;
14903;SDS011;7543;53.148;8.234;2023-08-06T10:38:12;3.80;;;3.25;;
14903;SDS011;7543;53.148;8.234;2023-08-06T10:40:43;4.10;;;3.10;;
14903;SDS011;7543;53.148;8.234;2023-08-06T10:43:26;3.63;;;2.75;;
14903;SDS011;7543;53.148;8.234;2023-08-06T10:45:54;2.55;;;2.03;;
14903;SDS011;7543;53.148;8.234;2023-08-06T10:48:29;1.95;;;1.75;;
14903;SDS011;7543;53.148;8.234;2023-08-06T10:50:59;2.83;;;1.70;;
14903;SDS011;7543;53.148;8.234;2023-08-06T10:53:28;1.48;;;1.30;;
14903;SDS011;7543;53.148;8.234;2023-08-06T10:55:57;2.17;;;1.45;;
14903;SDS011;7543;53.148;8.234;2023-08-06T10:58:27;3.22;;;1.50;;
14903;SDS011;7543;53.148;8.234;2023-08-06T11:00:59;1.40;;;1.30;;
14903;SDS011;7543;53.148;8.234;2023-08-06T11:03:27;1.52;;;1.10;;
14903;SDS011;7543;53.148;8.234;2023-08-06T11:05:56;1.83;;;1.25;;
14903;SDS011;7543;53.148;8.234;2023-08-06T11:08:24;2.28;;;1.38;;
14903;SDS011;7543;53.148;8.234;2023-08-06T11:10:53;1.98;;;1.13;;
14903;SDS011;7543;53.148;8.234;2023-08-06T11:13:21;1.65;;;1.13;;
14903;SDS011;7543;53.148;8.234;2023-08-06T11:15:52;1.15;;;1.05;;
14903;SDS011;7543;53.148;8.234;2023-08-06T11:18:21;1.55;;;1.10;;
14903;SDS011;7543;53.148;8.234;2023-08-06T11:20:50;1.75;;;1.30;;
14903;SDS011;7543;53.148;8.234;2023-08-06T11:23:18;1.20;;;1.10;;
14903;SDS011;7543;53.148;8.234;2023-08-06T11:25:47;2.55;;;1.30;;
14903;SDS011;7543;53.148;8.234;2023-08-06T11:28:15;1.70;;;1.40;;
14903;SDS011;7543;53.148;8.234;2023-08-06T11:30:44;1.27;;;1.15;;
14903;SDS011;7543;53.148;8.234;2023-08-06T11:33:13;1.90;;;1.50;;
14903;SDS011;7543;53.148;8.234;2023-08-06T11:35:42;1.67;;;1.27;;
14903;SDS011;7543;53.148;8.234;2023-08-06T11:38:11;2.53;;;1.63;;
14903;SDS011;7543;53.148;8.234;2023-08-06T11:40:41;1.42;;;1.30;;
14903;SDS011;7543;53.148;8.234;2023-08-06T11:43:11;1.58;;;1.40;;
14903;SDS011;7543;53.148;8.234;2023-08-06T11:45:40;2.28;;;1.42;;
14903;SDS011;7543;53.148;8.234;2023-08-06T11:48:11;2.28;;;1.38;;
14903;SDS011;7543;53.148;8.234;2023-08-06T11:50:40;2.42;;;1.50;;
14903;SDS011;7543;53.148;8.234;2023-08-06T11:53:11;1.75;;;1.27;;
14903;SDS011;7543;53.148;8.234;2023-08-06T11:55:40;1.67;;;1.33;;
14903;SDS011;7543;53.148;8.234;2023-08-06T11:58:09;2.65;;;1.30;;
14903;SDS011;7543;53.148;8.234;2023-08-06T12:00:38;2.13;;;1.40;;
14903;SDS011;7543;53.148;8.234;2023-08-06T12:03:07;1.52;;;1.23;;
14903;SDS011;7543;53.148;8.234;2023-08-06T12:05:35;2.67;;;1.15;;
14903;SDS011;7543;53.148;8.234;2023-08-06T12:08:06;3.08;;;1.20;;
14903;SDS011;7543;53.148;8.234;2023-08-06T12:10:37;1.98;;;1.48;;
14903;SDS011;7543;53.148;8.234;2023-08-06T12:13:05;1.20;;;1.10;;
14903;SDS011;7543;53.148;8.234;2023-08-06T12:15:33;1.77;;;1.10;;
14903;SDS011;7543;53.148;8.234;2023-08-06T12:18:03;1.50;;;1.30;;
14903;SDS011;7543;53.148;8.234;2023-08-06T12:20:31;1.80;;;1.38;;
14903;SDS011;7543;53.148;8.234;2023-08-06T12:22:59;1.40;;;1.30;;
14903;SDS011;7543;53.148;8.234;2023-08-06T12:25:29;2.65;;;1.48;;
14903;SDS011;7543;53.148;8.234;2023-08-06T12:27:57;5.35;;;1.63;;
14903;SDS011;7543;53.148;8.234;2023-08-06T12:30:26;2.75;;;1.55;;
14903;SDS011;7543;53.148;8.234;2023-08-06T12:32:54;2.45;;;1.50;;
14903;SDS011;7543;53.148;8.234;2023-08-06T12:35:22;1.50;;;1.40;;
14903;SDS011;7543;53.148;8.234;2023-08-06T12:37:52;1.65;;;1.27;;
14903;SDS011;7543;53.148;8.234;2023-08-06T12:40:21;1.52;;;1.40;;
14903;SDS011;7543;53.148;8.234;2023-08-06T12:42:50;1.52;;;1.30;;
14903;SDS011;7543;53.148;8.234;2023-08-06T12:45:19;1.70;;;1.35;;
14903;SDS011;7543;53.148;8.234;2023-08-06T12:47:48;2.17;;;1.60;;
14903;SDS011;7543;53.148;8.234;2023-08-06T12:50:16;1.70;;;1.45;;
14903;SDS011;7543;53.148;8.234;2023-08-06T12:52:45;2.33;;;1.55;;
14903;SDS011;7543;53.148;8.234;2023-08-06T12:55:13;2.90;;;1.50;;
14903;SDS011;7543;53.148;8.234;2023-08-06T12:57:41;3.08;;;1.63;;
14903;SDS011;7543;53.148;8.234;2023-08-06T13:00:11;1.52;;;1.30;;
14903;SDS011;7543;53.148;8.234;2023-08-06T13:02:40;2.17;;;1.50;;
14903;SDS011;7543;53.148;8.234;2023-08-06T13:05:08;2.05;;;1.30;;
14903;SDS011;7543;53.148;8.234;2023-08-06T13:07:36;1.48;;;1.33;;
14903;SDS011;7543;53.148;8.234;2023-08-06T13:10:05;1.27;;;1.15;;
14903;SDS011;7543;53.148;8.234;2023-08-06T13:12:34;1.50;;;1.30;;
14903;SDS011;7543;53.148;8.234;2023-08-06T13:15:03;1.40;;;1.20;;
14903;SDS011;7543;53.148;8.234;2023-08-06T13:17:33;1.63;;;1.38;;
14903;SDS011;7543;53.148;8.234;2023-08-06T13:20:02;2.00;;;1.30;;
14903;SDS011;7543;53.148;8.234;2023-08-06T13:22:30;2.67;;;1.30;;
14903;SDS011;7543;53.148;8.234;2023-08-06T13:24:58;2.20;;;1.55;;
14903;SDS011;7543;53.148;8.234;2023-08-06T13:27:27;2.92;;;1.70;;
14903;SDS011;7543;53.148;8.234;2023-08-06T13:29:55;6.55;;;2.28;;
14903;SDS011;7543;53.148;8.234;2023-08-06T13:32:24;4.50;;;1.77;;
14903;SDS011;7543;53.148;8.234;2023-08-06T13:34:53;1.63;;;1.35;;
14903;SDS011;7543;53.148;8.234;2023-08-06T13:37:22;2.20;;;1.50;;
14903;SDS011;7543;53.148;8.234;2023-08-06T13:39:50;2.50;;;1.67;;
14903;SDS011;7543;53.148;8.234;2023-08-06T13:42:18;1.83;;;1.48;;
14903;SDS011;7543;53.148;8.234;2023-08-06T13:44:46;1.90;;;1.20;;
14903;SDS011;7543;53.148;8.234;2023-08-06T13:47:15;1.73;;;1.23;;
14903;SDS011;7543;53.148;8.234;2023-08-06T13:49:43;2.40;;;1.40;;
14903;SDS011;7543;53.148;8.234;2023-08-06T13:52:13;2.25;;;1.60;;
14903;SDS011;7543;53.148;8.234;2023-08-06T13:54:41;1.90;;;1.48;;
14903;SDS011;7543;53.148;8.234;2023-08-06T13:57:10;3.00;;;1.80;;
14903;SDS011;7543;53.148;8.234;2023-08-06T13:59:38;3.03;;;1.52;;
14903;SDS011;7543;53.148;8.234;2023-08-06T14:02:07;1.95;;;1.70;;
14903;SDS011;7543;53.148;8.234;2023-08-06T14:04:36;1.77;;;1.40;;
14903;SDS011;7543;53.148;8.234;2023-08-06T14:07:04;1.85;;;1.48;;
14903;SDS011;7543;53.148;8.234;2023-08-06T14:09:34;2.83;;;1.60;;
14903;SDS011;7543;53.148;8.234;2023-08-06T14:12:03;2.45;;;1.67;;
14903;SDS011;7543;53.148;8.234;2023-08-06T14:14:32;3.80;;;1.77;;
14903;SDS011;7543;53.148;8.234;2023-08-06T14:17:00;2.47;;;1.67;;
14903;SDS011;7543;53.148;8.234;2023-08-06T14:19:28;1.90;;;1.70;;
14903;SDS011;7543;53.148;8.234;2023-08-06T14:21:57;2.80;;;1.70;;
14903;SDS011;7543;53.148;8.234;2023-08-06T14:24:25;2.78;;;1.55;;
14903;SDS011;7543;53.148;8.234;2023-08-06T14:26:55;2.47;;;1.92;;
14903;SDS011;7543;53.148;8.234;2023-08-06T14:29:24;2.78;;;1.70;;
14903;SDS011;7543;53.148;8.234;2023-08-06T14:31:52;1.90;;;1.60;;
14903;SDS011;7543;53.148;8.234;2023-08-06T14:34:20;3.33;;;2.03;;
14903;SDS011;7543;53.148;8.234;2023-08-06T14:36:49;2.10;;;1.55;;
14903;SDS011;7543;53.148;8.234;2023-08-06T14:39:17;2.58;;;1.70;;
14903;SDS011;7543;53.148;8.234;2023-08-06T14:41:45;2.67;;;2.03;;
14903;SDS011;7543;53.148;8.234;2023-08-06T14:44:15;2.50;;;1.95;;
14903;SDS011;7543;53.148;8.234;2023-08-06T14:46:43;2.03;;;1.83;;
14903;SDS011;7543;53.148;8.234;2023-08-06T14:49:12;5.88;;;2.95;;
14903;SDS011;7543;53.148;8.234;2023-08-06T14:51:40;3.83;;;2.45;;
14903;SDS011;7543;53.148;8.234;2023-08-06T14:54:09;2.90;;;1.90;;
14903;SDS011;7543;53.148;8.234;2023-08-06T14:56:37;4.35;;;2.25;;
14903;SDS011;7543;53.148;8.234;2023-08-06T14:59:05;8.20;;;3.13;;
14903;SDS011;7543;53.148;8.234;2023-08-06T15:01:35;7.32;;;3.83;;
14903;SDS011;7543;53.148;8.234;2023-08-06T15:04:03;3.35;;;2.40;;
14903;SDS011;7543;53.148;8.234;2023-08-06T15:06:31;4.82;;;2.38;;
14903;SDS011;7543;53.148;8.234;2023-08-06T15:09:00;2.35;;;1.90;;
14903;SDS011;7543;53.148;8.234;2023-08-06T15:11:28;12.00;;;4.10;;